Time;durP1;ratioP1;P1;durP2;ratioP2;P2;SDS_P1;SDS_P2;PMS_P1;PMS_P2;Temp;Humidity;BMP_temperature;BMP_pressure;BME280_temperature;BME280_humidity;BME280_pressure;Samples;Min_cycle;Max_cycle;Signal;HPM_P1;HPM_P2
2021/01/27 00:01:19;;;;;;;;;;;1.20;90.30;;;;;;5073438;28;20008;-70
2021/01/27 00:03:48;;;;;;;;;;;1.20;90.20;;;;;;5070860;28;20026;-69
2021/01/27 00:06:15;;;;;;;;;;;1.20;90.40;;;;;;5073979;28;19960;-69
2021/01/27 00:08:41;;;;;;;;;;;1.30;90.00;;;;;;5071486;28;20017;-69
2021/01/27 00:11:07;;;;;;;;;;;1.20;90.10;;;;;;5074156;28;20341;-70
2021/01/27 00:13:33;;;;;;;;;;;1.20;90.40;;;;;;5071640;28;20005;-70
2021/01/27 00:16:02;;;;;;;;;;;1.20;90.30;;;;;;5073169;28;19960;-70
2021/01/27 00:18:28;;;;;;;;;;;1.10;90.70;;;;;;5071036;28;19933;-70
2021/01/27 00:20:54;;;;;;;;;;;1.10;90.80;;;;;;5074322;28;19937;-69
2021/01/27 00:23:21;;;;;;;;;;;1.20;90.60;;;;;;5068762;28;19925;-69
2021/01/27 00:25:48;;;;;;;;;;;1.10;90.40;;;;;;5054173;28;19986;-69
2021/01/27 00:28:14;;;;;;;;;;;1.10;90.50;;;;;;5051947;28;19976;-69
2021/01/27 00:30:41;;;;;;;;;;;1.20;90.40;;;;;;5071111;28;19954;-69
2021/01/27 00:33:12;;;;;;;;;;;1.20;90.30;;;;;;5073026;28;19968;-69
2021/01/27 00:35:39;;;;;;;;;;;1.20;90.40;;;;;;5070577;28;19963;-69
2021/01/27 00:38:16;;;;;;;;;;;1.20;90.40;;;;;;5073994;28;20064;-69
2021/01/27 00:40:42;;;;;;;;;;;1.10;90.20;;;;;;5069603;28;19960;-70
2021/01/27 00:43:09;;;;;;;;;;;1.10;90.20;;;;;;5073405;28;20360;-70
2021/01/27 00:45:35;;;;;;;;;;;1.20;90.50;;;;;;5069771;28;19989;-70
2021/01/27 00:48:01;;;;;;;;;;;1.10;90.60;;;;;;5073445;28;19966;-69
2021/01/27 00:50:28;;;;;;;;;;;1.10;90.70;;;;;;5070316;28;19944;-70
2021/01/27 00:52:54;;;;;;;;;;;1.10;90.70;;;;;;5073333;28;19924;-70
2021/01/27 00:55:22;;;;;;;;;;;1.20;90.60;;;;;;5069080;28;19936;-69
2021/01/27 00:57:49;;;;;;;;;;;1.10;90.50;;;;;;5072281;28;20256;-69
2021/01/27 01:00:17;;;;;;;;;;;1.10;90.40;;;;;;5070078;28;20013;-69
2021/01/27 01:02:44;;;;;;;;;;;1.10;90.50;;;;;;5072926;28;19932;-69
2021/01/27 01:05:14;;;;;;;;;;;1.10;90.60;;;;;;5072407;28;19970;-69
2021/01/27 01:07:44;;;;;;;;;;;1.20;90.30;;;;;;5070519;28;20353;-70
2021/01/27 01:10:12;;;;;;;;;;;1.20;90.30;;;;;;5105656;28;20315;-70
2021/01/27 01:12:39;;;;;;;;;;;1.20;90.10;;;;;;5068785;28;20015;-70
2021/01/27 01:15:05;;;;;;;;;;;1.20;90.20;;;;;;5072289;28;20281;-69
2021/01/27 01:17:32;;;;;;;;;;;1.10;90.20;;;;;;5068341;28;20376;-69
2021/01/27 01:19:58;;;;;;;;;;;1.10;90.20;;;;;;5072661;28;19975;-70
2021/01/27 01:22:25;;;;;;;;;;;1.10;90.50;;;;;;5069604;28;19968;-70
2021/01/27 01:24:51;;;;;;;;;;;1.10;90.30;;;;;;5071998;28;19928;-70
2021/01/27 01:27:17;;;;;;;;;;;1.10;90.30;;;;;;5068397;28;20027;-69
2021/01/27 01:29:44;;;;;;;;;;;1.10;90.40;;;;;;5072793;28;19982;-70
2021/01/27 01:32:10;;;;;;;;;;;1.10;90.60;;;;;;5069093;28;20337;-70
2021/01/27 01:34:36;;;;;;;;;;;1.10;90.70;;;;;;5071881;28;19951;-69
2021/01/27 01:37:03;;;;;;;;;;;1.10;90.40;;;;;;5071796;28;19958;-69
2021/01/27 01:39:29;;;;;;;;;;;1.20;90.40;;;;;;5090443;28;19970;-70
2021/01/27 01:41:55;;;;;;;;;;;1.10;90.10;;;;;;5092932;28;19927;-69
2021/01/27 01:44:24;;;;;;;;;;;1.10;90.30;;;;;;5071833;28;20038;-70
2021/01/27 01:46:50;;;;;;;;;;;1.10;90.30;;;;;;5071360;28;19925;-70
2021/01/27 01:49:16;;;;;;;;;;;1.10;90.10;;;;;;5069314;28;19936;-69
2021/01/27 01:51:48;;;;;;;;;;;1.10;90.20;;;;;;5072576;28;20007;-69
2021/01/27 01:54:25;;;;;;;;;;;1.10;90.40;;;;;;5069240;28;19936;-70
2021/01/27 01:56:54;;;;;;;;;;;1.00;90.50;;;;;;5072376;28;19981;-70
2021/01/27 01:59:20;;;;;;;;;;;1.00;90.40;;;;;;5077291;28;19981;-69
2021/01/27 02:01:52;;;;;;;;;;;1.00;90.40;;;;;;5091155;28;19924;-69
2021/01/27 02:04:19;;;;;;;;;;;1.00;90.60;;;;;;5082236;28;20627;-70
2021/01/27 02:06:45;;;;;;;;;;;1.00;90.60;;;;;;5071935;28;20396;-70
2021/01/27 02:09:12;;;;;;;;;;;1.00;90.80;;;;;;5068229;28;20262;-70
2021/01/27 02:11:38;;;;;;;;;;;1.00;90.80;;;;;;5070928;28;19936;-69
2021/01/27 02:14:13;;;;;;;;;;;0.90;90.90;;;;;;5072079;28;19967;-69
2021/01/27 02:16:51;;;;;;;;;;;1.00;90.90;;;;;;5071719;28;19983;-69
2021/01/27 02:19:36;;;;;;;;;;;1.00;90.90;;;;;;5072135;28;19995;-69
2021/01/27 02:22:23;;;;;;;;;;;1.00;90.80;;;;;;5052192;28;19956;-69
2021/01/27 02:24:58;;;;;;;;;;;1.00;91.00;;;;;;5069446;28;20022;-69
2021/01/27 02:27:28;;;;;;;;;;;1.00;91.10;;;;;;5084597;28;19928;-69
2021/01/27 02:30:14;;;;;;;;;;;1.00;90.80;;;;;;5051172;28;19929;-70
2021/01/27 02:32:58;;;;;;;;;;;1.00;90.70;;;;;;5051485;28;20314;-69
2021/01/27 02:35:27;;;;;;;;;;;1.00;90.70;;;;;;5050090;28;20337;-69
2021/01/27 02:38:12;;;;;;;;;;;1.00;90.40;;;;;;5070822;28;19932;-69
2021/01/27 02:40:44;;;;;;;;;;;1.10;90.40;;;;;;5072094;28;19933;-69
2021/01/27 02:43:10;;;;;;;;;;;1.10;90.70;;;;;;5070910;28;20292;-69
2021/01/27 02:45:40;;;;;;;;;;;1.00;90.60;;;;;;5071912;28;20408;-70
2021/01/27 02:48:13;;;;;;;;;;;1.00;90.30;;;;;;5068442;28;20400;-69
2021/01/27 02:50:44;;;;;;;;;;;1.00;90.50;;;;;;5071695;28;19961;-70
2021/01/27 02:53:21;;;;;;;;;;;1.10;90.30;;;;;;5067479;28;20021;-69
2021/01/27 02:56:16;;;;;;;;;;;1.10;90.30;;;;;;5071674;28;19928;-70
2021/01/27 02:58:45;;;;;;;;;;;1.10;90.50;;;;;;5058284;28;19994;-69
2021/01/27 03:01:20;;;;;;;;;;;1.10;90.60;;;;;;5071459;28;20030;-69
2021/01/27 03:03:54;;;;;;;;;;;1.10;90.80;;;;;;5068189;28;19928;-70
2021/01/27 03:06:20;;;;;;;;;;;1.10;90.80;;;;;;5070531;28;19959;-70
2021/01/27 03:08:54;;;;;;;;;;;1.10;91.00;;;;;;5087576;28;19995;-69
2021/01/27 03:11:22;;;;;;;;;;;1.00;91.20;;;;;;5051602;28;20295;-70
2021/01/27 03:13:48;;;;;;;;;;;1.00;91.50;;;;;;5059354;28;19928;-70
2021/01/27 03:16:30;;;;;;;;;;;1.00;91.70;;;;;;5071397;28;20344;-70
2021/01/27 03:19:14;;;;;;;;;;;0.90;92.00;;;;;;5068056;28;20062;-69
2021/01/27 03:21:47;;;;;;;;;;;0.90;92.70;;;;;;5072257;28;19924;-69
2021/01/27 03:24:20;;;;;;;;;;;0.90;93.10;;;;;;5071742;28;20019;-70
2021/01/27 03:26:47;;;;;;;;;;;0.90;93.30;;;;;;5075194;28;19930;-70
2021/01/27 03:29:34;;;;;;;;;;;0.80;93.80;;;;;;5070707;28;19964;-70
2021/01/27 03:32:04;;;;;;;;;;;0.80;93.90;;;;;;5074292;28;19964;-70
2021/01/27 03:34:42;;;;;;;;;;;0.80;93.60;;;;;;5071831;28;19940;-70
2021/01/27 03:37:15;;;;;;;;;;;0.70;93.80;;;;;;5073839;28;19975;-70
2021/01/27 03:39:46;;;;;;;;;;;0.70;93.60;;;;;;5071365;28;20015;-70
2021/01/27 03:42:21;;;;;;;;;;;0.70;93.90;;;;;;5074676;28;19932;-70
2021/01/27 03:44:55;;;;;;;;;;;0.70;93.80;;;;;;5070609;28;20361;-70
2021/01/27 03:47:40;;;;;;;;;;;0.70;93.90;;;;;;5074507;28;19928;-70
2021/01/27 03:50:20;;;;;;;;;;;0.70;93.60;;;;;;5070357;28;20015;-70
2021/01/27 03:52:56;;;;;;;;;;;0.80;93.10;;;;;;5074734;28;19925;-70
2021/01/27 03:55:32;;;;;;;;;;;0.80;93.00;;;;;;5070280;28;19932;-70
2021/01/27 03:58:03;;;;;;;;;;;0.90;93.00;;;;;;5073441;28;19954;-70
2021/01/27 04:00:31;;;;;;;;;;;0.80;93.00;;;;;;5071041;28;19932;-70
2021/01/27 04:03:00;;;;;;;;;;;0.80;93.10;;;;;;5074606;28;19955;-70
2021/01/27 04:05:26;;;;;;;;;;;0.80;93.00;;;;;;5073256;28;19924;-70
2021/01/27 04:07:52;;;;;;;;;;;0.80;93.30;;;;;;5072352;28;19928;-70
2021/01/27 04:10:19;;;;;;;;;;;0.90;93.10;;;;;;5074536;28;19928;-70
2021/01/27 04:12:45;;;;;;;;;;;0.90;93.10;;;;;;5070564;28;20039;-70
2021/01/27 04:15:12;;;;;;;;;;;0.80;93.30;;;;;;5074600;28;19975;-70
2021/01/27 04:17:39;;;;;;;;;;;0.80;93.40;;;;;;5070536;28;20354;-69
2021/01/27 04:20:05;;;;;;;;;;;0.80;93.60;;;;;;5074101;28;19924;-69
2021/01/27 04:22:32;;;;;;;;;;;0.80;94.10;;;;;;5070059;28;19967;-70
2021/01/27 04:24:58;;;;;;;;;;;0.70;94.20;;;;;;5073929;28;19983;-70
2021/01/27 04:27:25;;;;;;;;;;;0.70;94.60;;;;;;5071255;28;19925;-70
2021/01/27 04:29:51;;;;;;;;;;;0.60;94.90;;;;;;5072850;28;19986;-70
2021/01/27 04:32:17;;;;;;;;;;;0.60;94.90;;;;;;5070058;28;19925;-69
2021/01/27 04:34:44;;;;;;;;;;;0.60;95.00;;;;;;5073955;28;19983;-70
2021/01/27 04:37:10;;;;;;;;;;;0.60;95.10;;;;;;5072195;28;20289;-70
2021/01/27 04:39:37;;;;;;;;;;;0.70;95.20;;;;;;5071199;28;20041;-70
2021/01/27 04:42:09;;;;;;;;;;;0.60;95.30;;;;;;5073636;28;19936;-70
2021/01/27 04:44:38;;;;;;;;;;;0.60;95.50;;;;;;5069204;28;20007;-70
2021/01/27 04:47:24;;;;;;;;;;;0.60;95.70;;;;;;5073704;28;19924;-70
2021/01/27 04:49:52;;;;;;;;;;;0.50;95.70;;;;;;5070133;28;19925;-70
2021/01/27 04:52:18;;;;;;;;;;;0.50;95.40;;;;;;5072320;28;20364;-70
2021/01/27 04:55:03;;;;;;;;;;;0.50;95.20;;;;;;5070261;28;19932;-70
2021/01/27 04:57:35;;;;;;;;;;;0.60;95.10;;;;;;5073349;28;19936;-70
2021/01/27 05:00:09;;;;;;;;;;;0.50;95.00;;;;;;5070331;28;20302;-70
2021/01/27 05:02:56;;;;;;;;;;;0.50;95.00;;;;;;5073317;28;19986;-70
2021/01/27 05:05:29;;;;;;;;;;;0.50;94.80;;;;;;5069491;28;19940;-70
2021/01/27 05:08:13;;;;;;;;;;;0.60;94.70;;;;;;5072342;28;20036;-70
2021/01/27 05:10:53;;;;;;;;;;;0.60;94.40;;;;;;5068766;28;20359;-70
2021/01/27 05:13:19;;;;;;;;;;;0.60;94.50;;;;;;5073015;28;19928;-70
2021/01/27 05:15:47;;;;;;;;;;;0.60;94.40;;;;;;5069595;28;20019;-70
2021/01/27 05:18:18;;;;;;;;;;;0.50;94.60;;;;;;5071865;28;19928;-69
2021/01/27 05:20:48;;;;;;;;;;;0.50;94.60;;;;;;5068624;28;19971;-70
2021/01/27 05:23:14;;;;;;;;;;;0.50;94.40;;;;;;5072434;28;19924;-70
2021/01/27 05:25:43;;;;;;;;;;;0.50;94.60;;;;;;5068510;28;19977;-69
2021/01/27 05:28:17;;;;;;;;;;;0.50;94.40;;;;;;5072459;28;20373;-70
2021/01/27 05:30:52;;;;;;;;;;;0.50;94.30;;;;;;5068656;28;19928;-69
2021/01/27 05:33:19;;;;;;;;;;;0.50;94.40;;;;;;5071833;28;19967;-70
2021/01/27 05:35:47;;;;;;;;;;;0.60;94.20;;;;;;5068038;28;20426;-70
2021/01/27 05:38:25;;;;;;;;;;;0.60;94.00;;;;;;5072872;28;19986;-70
2021/01/27 05:41:03;;;;;;;;;;;0.60;94.00;;;;;;5069814;28;20387;-70
2021/01/27 05:43:29;;;;;;;;;;;0.60;93.70;;;;;;5052681;28;19986;-69
2021/01/27 05:46:08;;;;;;;;;;;0.60;93.40;;;;;;5051903;28;19974;-69
2021/01/27 05:48:47;;;;;;;;;;;0.60;93.90;;;;;;5070856;28;19932;-69
2021/01/27 05:51:15;;;;;;;;;;;0.60;93.60;;;;;;5071803;28;20316;-69
2021/01/27 05:53:42;;;;;;;;;;;0.60;93.50;;;;;;5068957;28;19924;-69
2021/01/27 05:56:19;;;;;;;;;;;0.60;93.50;;;;;;5071711;28;19924;-69
2021/01/27 05:58:56;;;;;;;;;;;0.60;93.40;;;;;;5068957;28;20510;-70
2021/01/27 06:01:26;;;;;;;;;;;0.70;93.10;;;;;;5071083;28;20365;-70
2021/01/27 06:04:11;;;;;;;;;;;0.60;93.20;;;;;;5069058;28;19929;-69
2021/01/27 06:06:49;;;;;;;;;;;0.70;92.90;;;;;;5072178;28;19925;-70
2021/01/27 06:09:35;;;;;;;;;;;0.70;93.00;;;;;;5068836;28;20252;-70
2021/01/27 06:12:03;;;;;;;;;;;0.80;92.80;;;;;;5072115;28;20048;-70
2021/01/27 06:14:29;;;;;;;;;;;0.70;92.30;;;;;;5068714;28;20339;-69
2021/01/27 06:16:56;;;;;;;;;;;0.80;92.60;;;;;;5070517;28;19928;-69
2021/01/27 06:19:24;;;;;;;;;;;0.70;92.30;;;;;;5069058;28;20026;-69
2021/01/27 06:21:56;;;;;;;;;;;0.80;92.40;;;;;;5072391;28;19968;-69
2021/01/27 06:24:43;;;;;;;;;;;0.80;92.40;;;;;;5068537;28;19990;-70
2021/01/27 06:27:21;;;;;;;;;;;0.80;92.30;;;;;;5071919;28;20690;-70
2021/01/27 06:29:50;;;;;;;;;;;0.80;92.20;;;;;;5067721;28;19928;-70
2021/01/27 06:32:35;;;;;;;;;;;0.90;91.90;;;;;;5071723;28;19959;-70
2021/01/27 06:35:02;;;;;;;;;;;0.90;92.00;;;;;;5068343;28;19939;-69
2021/01/27 06:37:35;;;;;;;;;;;0.90;92.20;;;;;;5071078;28;19928;-70
2021/01/27 06:40:10;;;;;;;;;;;0.80;92.40;;;;;;5068420;28;20406;-70
2021/01/27 06:42:47;;;;;;;;;;;0.80;92.70;;;;;;5071866;28;19936;-69
2021/01/27 06:45:19;;;;;;;;;;;0.80;93.00;;;;;;5067370;28;19929;-70
2021/01/27 06:47:51;;;;;;;;;;;0.80;93.00;;;;;;5070498;28;20025;-69
2021/01/27 06:50:20;;;;;;;;;;;0.80;93.00;;;;;;5067789;28;20283;-69
2021/01/27 06:53:02;;;;;;;;;;;0.70;93.00;;;;;;5071317;28;19993;-70
2021/01/27 06:55:31;;;;;;;;;;;0.70;93.20;;;;;;5068258;28;20135;-70
2021/01/27 06:58:23;;;;;;;;;;;0.70;93.20;;;;;;5074730;28;19929;-70
2021/01/27 07:01:12;;;;;;;;;;;0.80;93.00;;;;;;5072466;28;19928;-69
2021/01/27 07:03:53;;;;;;;;;;;0.70;93.00;;;;;;5055939;28;20268;-69
2021/01/27 07:06:32;;;;;;;;;;;0.80;92.90;;;;;;5070757;28;19936;-69
2021/01/27 07:09:18;;;;;;;;;;;0.80;92.80;;;;;;5075552;28;19928;-69
2021/01/27 07:11:47;;;;;;;;;;;0.80;92.80;;;;;;5071791;28;19932;-69
2021/01/27 07:14:13;;;;;;;;;;;0.80;92.50;;;;;;5075564;28;20645;-69
2021/01/27 07:17:03;;;;;;;;;;;0.80;92.40;;;;;;5060205;28;20212;-69
2021/01/27 07:19:56;;;;;;;;;;;0.80;92.60;;;;;;5064818;28;19928;-69
2021/01/27 07:22:37;;;;;;;;;;;0.80;92.70;;;;;;5070591;28;20011;-69
2021/01/27 07:25:10;;;;;;;;;;;0.90;92.30;;;;;;5074713;28;19955;-69
2021/01/27 07:27:41;;;;;;;;;;;0.90;92.40;;;;;;5071679;28;19947;-69
2021/01/27 07:30:07;;;;;;;;;;;1.00;92.10;;;;;;5074407;28;19994;-69
2021/01/27 07:32:40;;;;;;;;;;;1.00;92.30;;;;;;5070360;28;19960;-69
2021/01/27 07:35:13;;;;;;;;;;;1.00;91.80;;;;;;5075210;28;19925;-69
2021/01/27 07:37:47;;;;;;;;;;;1.00;91.80;;;;;;5070766;28;19997;-69
2021/01/27 07:40:14;;;;;;;;;;;1.10;91.50;;;;;;5074799;28;20337;-69
2021/01/27 07:42:47;;;;;;;;;;;1.10;91.40;;;;;;5073096;28;19924;-69
2021/01/27 07:45:16;;;;;;;;;;;1.10;91.60;;;;;;5065041;28;19963;-69
2021/01/27 07:47:46;;;;;;;;;;;1.10;90.90;;;;;;5074646;28;20253;-69
2021/01/27 07:50:19;;;;;;;;;;;1.10;90.90;;;;;;5070149;28;20261;-69
2021/01/27 07:53:01;;;;;;;;;;;1.20;91.30;;;;;;5073352;28;19936;-69
2021/01/27 07:55:33;;;;;;;;;;;1.20;91.00;;;;;;5070715;28;19928;-69
2021/01/27 07:58:07;;;;;;;;;;;1.20;90.80;;;;;;5074887;28;19986;-69
2021/01/27 08:00:54;;;;;;;;;;;1.20;90.90;;;;;;5070868;28;19928;-69
2021/01/27 08:03:36;;;;;;;;;;;1.20;91.20;;;;;;5074023;28;19928;-69
2021/01/27 08:06:15;;;;;;;;;;;1.20;91.20;;;;;;5069331;28;20427;-69
2021/01/27 08:09:01;;;;;;;;;;;1.20;90.80;;;;;;5072838;28;20276;-69
2021/01/27 08:11:35;;;;;;;;;;;1.40;90.60;;;;;;5070568;28;19928;-69
2021/01/27 08:14:05;;;;;;;;;;;1.40;90.20;;;;;;5073630;28;19928;-69
2021/01/27 08:16:33;;;;;;;;;;;1.40;90.10;;;;;;5070786;28;20311;-70
2021/01/27 08:19:10;;;;;;;;;;;1.50;90.50;;;;;;5073411;28;19928;-70
2021/01/27 08:21:39;;;;;;;;;;;1.50;90.50;;;;;;5070700;28;19978;-70
2021/01/27 08:24:06;;;;;;;;;;;1.60;89.80;;;;;;5073331;28;19964;-70
2021/01/27 08:26:43;;;;;;;;;;;1.50;90.00;;;;;;5069826;28;19944;-70
2021/01/27 08:29:11;;;;;;;;;;;1.50;90.00;;;;;;5073857;28;20295;-69
2021/01/27 08:31:37;;;;;;;;;;;1.60;90.00;;;;;;5069230;28;19929;-69
2021/01/27 08:34:04;;;;;;;;;;;1.60;89.80;;;;;;5072754;28;19977;-69
2021/01/27 08:36:30;;;;;;;;;;;1.60;90.00;;;;;;5070097;28;19963;-69
2021/01/27 08:38:57;;;;;;;;;;;1.60;90.00;;;;;;5072497;28;19932;-69
2021/01/27 08:41:36;;;;;;;;;;;1.70;89.50;;;;;;5070232;28;19929;-69
2021/01/27 08:44:02;;;;;;;;;;;1.70;89.50;;;;;;5072363;28;19925;-70
2021/01/27 08:46:33;;;;;;;;;;;1.80;89.70;;;;;;5070194;28;20071;-69
2021/01/27 08:49:01;;;;;;;;;;;1.80;89.50;;;;;;5073747;28;19940;-69
2021/01/27 08:51:41;;;;;;;;;;;1.90;89.50;;;;;;5072521;28;19956;-69
2021/01/27 08:54:24;;;;;;;;;;;2.00;89.40;;;;;;5052313;28;19974;-69
2021/01/27 08:57:09;;;;;;;;;;;2.10;89.00;;;;;;5052529;28;19998;-70
2021/01/27 08:59:52;;;;;;;;;;;2.30;88.00;;;;;;5052386;28;20006;-70
2021/01/27 09:02:36;;;;;;;;;;;2.40;87.80;;;;;;5050684;28;19963;-70
2021/01/27 09:05:03;;;;;;;;;;;2.60;85.80;;;;;;5073753;28;19928;-69
2021/01/27 09:07:32;;;;;;;;;;;2.70;85.90;;;;;;5070205;28;19933;-70
2021/01/27 09:10:02;;;;;;;;;;;2.70;85.50;;;;;;5072178;28;19940;-70
2021/01/27 09:12:28;;;;;;;;;;;2.70;84.60;;;;;;5071779;28;19988;-70
2021/01/27 09:14:57;;;;;;;;;;;2.60;85.10;;;;;;5069284;28;20369;-70
2021/01/27 09:17:23;;;;;;;;;;;2.70;85.40;;;;;;5071776;28;20006;-70
2021/01/27 09:19:54;;;;;;;;;;;2.80;84.60;;;;;;5068052;28;19975;-69
2021/01/27 09:22:22;;;;;;;;;;;2.70;83.60;;;;;;5071463;28;19994;-70
2021/01/27 09:24:50;;;;;;;;;;;2.80;84.20;;;;;;5068739;28;20046;-70
2021/01/27 09:27:24;;;;;;;;;;;2.80;83.40;;;;;;5088169;28;19924;-69
2021/01/27 09:29:59;;;;;;;;;;;2.80;83.00;;;;;;5067741;28;19928;-69
2021/01/27 09:32:26;;;;;;;;;;;2.80;82.70;;;;;;5071396;28;20387;-69
2021/01/27 09:34:53;;;;;;;;;;;2.80;83.80;;;;;;5069247;28;19940;-69
2021/01/27 09:37:39;;;;;;;;;;;2.90;82.00;;;;;;5070815;28;20410;-69
2021/01/27 09:40:07;;;;;;;;;;;3.00;82.10;;;;;;5067187;28;19966;-69
2021/01/27 09:42:33;;;;;;;;;;;3.10;81.00;;;;;;5071081;28;20025;-69
2021/01/27 09:45:01;;;;;;;;;;;3.30;80.50;;;;;;5068548;28;19928;-69
2021/01/27 09:47:30;;;;;;;;;;;3.50;78.80;;;;;;5072383;28;20288;-69
2021/01/27 09:49:58;;;;;;;;;;;3.70;78.90;;;;;;5068439;28;19936;-69
2021/01/27 09:52:24;;;;;;;;;;;3.70;76.20;;;;;;5072223;28;19979;-69
2021/01/27 09:54:54;;;;;;;;;;;3.80;77.30;;;;;;5072363;28;19974;-70
2021/01/27 09:57:22;;;;;;;;;;;3.90;75.10;;;;;;5068042;28;19986;-69
2021/01/27 09:59:53;;;;;;;;;;;4.00;76.60;;;;;;5071285;28;19924;-70
2021/01/27 10:02:32;;;;;;;;;;;4.20;76.20;;;;;;5068180;28;19963;-70
2021/01/27 10:05:01;;;;;;;;;;;4.40;75.70;;;;;;5071750;28;19933;-69
2021/01/27 10:07:34;;;;;;;;;;;4.70;72.80;;;;;;5068377;28;19959;-70
2021/01/27 10:10:14;;;;;;;;;;;4.80;71.20;;;;;;5072209;28;19928;-69
2021/01/27 10:12:41;;;;;;;;;;;5.00;70.60;;;;;;5067081;28;19929;-69
2021/01/27 10:15:24;;;;;;;;;;;5.00;70.00;;;;;;5071572;28;19928;-69
2021/01/27 10:18:00;;;;;;;;;;;5.00;70.80;;;;;;5068190;28;19929;-69
2021/01/27 10:20:28;;;;;;;;;;;5.00;69.70;;;;;;5072257;28;19928;-69
2021/01/27 10:22:57;;;;;;;;;;;5.10;69.10;;;;;;5068790;28;19933;-69
2021/01/27 10:25:38;;;;;;;;;;;5.10;69.70;;;;;;5071805;28;19929;-70
2021/01/27 10:28:07;;;;;;;;;;;6.30;67.70;;;;;;5059254;28;20353;-70
2021/01/27 10:30:38;;;;;;;;;;;7.90;59.70;;;;;;5051805;28;19928;-69
2021/01/27 10:33:25;;;;;;;;;;;9.10;58.40;;;;;;5081132;28;19929;-70
2021/01/27 10:35:51;;;;;;;;;;;9.70;54.30;;;;;;5051748;28;19929;-70
2021/01/27 10:38:21;;;;;;;;;;;10.20;54.00;;;;;;5054595;28;19963;-70
2021/01/27 10:41:02;;;;;;;;;;;10.80;49.90;;;;;;5071932;28;19987;-70
2021/01/27 10:43:28;;;;;;;;;;;11.30;50.80;;;;;;5067391;28;19928;-70
2021/01/27 10:45:55;;;;;;;;;;;11.40;47.90;;;;;;5071973;28;20311;-70
2021/01/27 10:48:21;;;;;;;;;;;11.60;48.30;;;;;;5067751;28;20023;-70
2021/01/27 10:50:49;;;;;;;;;;;12.10;48.00;;;;;;5070800;28;20013;-70
2021/01/27 10:53:32;;;;;;;;;;;12.20;45.00;;;;;;5069865;28;19924;-70
2021/01/27 10:55:58;;;;;;;;;;;12.80;43.40;;;;;;5069005;28;20042;-70
2021/01/27 10:58:24;;;;;;;;;;;13.70;43.10;;;;;;5071217;28;20349;-70
2021/01/27 11:00:51;;;;;;;;;;;13.30;42.30;;;;;;5067407;28;20311;-70
2021/01/27 11:03:17;;;;;;;;;;;13.70;40.80;;;;;;5071215;28;20023;-70
2021/01/27 11:05:45;;;;;;;;;;;14.40;39.50;;;;;;5068087;28;19985;-70
2021/01/27 11:08:13;;;;;;;;;;;14.60;38.50;;;;;;5071288;28;19974;-71
2021/01/27 11:10:40;;;;;;;;;;;15.00;37.60;;;;;;5068133;28;19980;-71
2021/01/27 11:13:06;;;;;;;;;;;15.40;36.60;;;;;;5069814;28;19928;-70
2021/01/27 11:15:33;;;;;;;;;;;15.50;35.80;;;;;;5068003;28;20001;-71
2021/01/27 11:17:59;;;;;;;;;;;15.80;36.50;;;;;;5070228;28;20357;-70
2021/01/27 11:20:26;;;;;;;;;;;16.20;34.30;;;;;;5067775;28;20031;-71
2021/01/27 11:22:52;;;;;;;;;;;16.50;35.90;;;;;;5070726;28;20312;-71
2021/01/27 11:25:20;;;;;;;;;;;16.90;33.80;;;;;;5065082;28;19932;-71
2021/01/27 11:27:46;;;;;;;;;;;17.40;33.60;;;;;;5069534;28;19994;-71
2021/01/27 11:30:14;;;;;;;;;;;17.40;33.10;;;;;;5070499;28;20349;-71
2021/01/27 11:32:41;;;;;;;;;;;17.60;32.50;;;;;;5067641;28;19939;-71
2021/01/27 11:35:07;;;;;;;;;;;17.70;31.60;;;;;;5103536;28;20424;-71
2021/01/27 11:37:33;;;;;;;;;;;16.90;31.70;;;;;;5067816;28;19924;-71
2021/01/27 11:40:00;;;;;;;;;;;17.20;33.10;;;;;;5070189;28;19932;-71
2021/01/27 11:42:26;;;;;;;;;;;17.60;33.30;;;;;;5067100;28;19932;-71
2021/01/27 11:44:53;;;;;;;;;;;18.10;32.90;;;;;;5073698;28;19925;-71
2021/01/27 11:47:20;;;;;;;;;;;18.80;31.60;;;;;;5071520;28;19939;-71
2021/01/27 11:49:46;;;;;;;;;;;19.50;30.00;;;;;;5074043;28;20356;-71
2021/01/27 11:52:13;;;;;;;;;;;19.60;29.10;;;;;;5070171;28;19932;-71
2021/01/27 11:54:40;;;;;;;;;;;19.70;28.80;;;;;;5073783;28;19929;-71
2021/01/27 11:57:09;;;;;;;;;;;20.00;28.20;;;;;;5072642;28;19982;-71
2021/01/27 11:59:35;;;;;;;;;;;20.40;29.70;;;;;;5073944;28;20293;-71
2021/01/27 12:02:03;;;;;;;;;;;20.70;29.10;;;;;;5072332;28;19925;-71
2021/01/27 12:04:29;;;;;;;;;;;21.10;27.10;;;;;;5070858;28;19928;-71
2021/01/27 12:06:55;;;;;;;;;;;20.70;27.00;;;;;;5073107;28;20029;-71
2021/01/27 12:09:24;;;;;;;;;;;20.70;27.30;;;;;;5069967;28;19929;-71
2021/01/27 12:11:50;;;;;;;;;;;20.90;26.80;;;;;;5073092;28;20261;-71
2021/01/27 12:14:16;;;;;;;;;;;20.60;27.50;;;;;;5070720;28;19935;-71
2021/01/27 12:16:43;;;;;;;;;;;20.90;27.50;;;;;;5074101;28;19987;-71
2021/01/27 12:19:13;;;;;;;;;;;21.50;26.70;;;;;;5069164;28;20357;-71
2021/01/27 12:21:39;;;;;;;;;;;21.80;26.40;;;;;;5058418;28;19960;-71
2021/01/27 12:24:05;;;;;;;;;;;21.50;25.20;;;;;;5068845;28;19928;-71
2021/01/27 12:26:32;;;;;;;;;;;21.50;26.70;;;;;;5073723;28;19967;-71
2021/01/27 12:28:58;;;;;;;;;;;21.80;26.30;;;;;;5070179;28;19989;-71
2021/01/27 12:31:25;;;;;;;;;;;21.90;26.20;;;;;;5073919;28;20019;-71
2021/01/27 12:33:51;;;;;;;;;;;22.20;25.60;;;;;;5073911;28;20023;-71
2021/01/27 12:36:18;;;;;;;;;;;22.40;25.70;;;;;;5069393;28;20023;-71
2021/01/27 12:38:44;;;;;;;;;;;22.20;25.80;;;;;;5072574;28;19932;-71
2021/01/27 12:41:10;;;;;;;;;;;22.10;25.70;;;;;;5070117;28;19938;-71
2021/01/27 12:43:37;;;;;;;;;;;22.20;25.10;;;;;;5071791;28;19924;-71
2021/01/27 12:46:03;;;;;;;;;;;22.10;25.90;;;;;;5070117;28;19928;-71
2021/01/27 12:48:30;;;;;;;;;;;21.90;25.70;;;;;;5072394;28;19985;-71
2021/01/27 12:50:57;;;;;;;;;;;21.70;25.90;;;;;;5068884;28;20039;-71
2021/01/27 12:53:24;;;;;;;;;;;21.60;25.60;;;;;;5071264;28;20424;-72
2021/01/27 12:55:53;;;;;;;;;;;21.80;26.10;;;;;;5068086;28;19929;-71
2021/01/27 12:58:20;;;;;;;;;;;22.00;24.90;;;;;;5072378;28;20385;-71
2021/01/27 13:00:47;;;;;;;;;;;21.70;24.40;;;;;;5070200;28;19928;-71
2021/01/27 13:03:13;;;;;;;;;;;21.70;25.40;;;;;;5068662;28;19936;-71
2021/01/27 13:05:41;;;;;;;;;;;21.80;25.20;;;;;;5052943;28;19987;-71
2021/01/27 13:08:07;;;;;;;;;;;21.60;25.40;;;;;;5066841;28;19928;-71
2021/01/27 13:10:41;;;;;;;;;;;21.70;25.70;;;;;;5073103;28;19986;-71
2021/01/27 13:13:11;;;;;;;;;;;21.70;26.10;;;;;;5067982;28;19929;-71
2021/01/27 13:15:38;;;;;;;;;;;21.20;25.20;;;;;;5072101;28;19928;-71
2021/01/27 13:18:05;;;;;;;;;;;20.90;25.40;;;;;;5068357;28;19925;-71
2021/01/27 13:20:33;;;;;;;;;;;20.80;26.10;;;;;;5071423;28;19929;-72
2021/01/27 13:23:00;;;;;;;;;;;20.60;26.30;;;;;;5068446;28;19933;-71
2021/01/27 13:25:29;;;;;;;;;;;21.00;25.90;;;;;;5073143;28;19959;-71
2021/01/27 13:28:00;;;;;;;;;;;21.20;25.10;;;;;;5069566;28;19936;-71
2021/01/27 13:30:29;;;;;;;;;;;21.20;25.20;;;;;;5071875;28;20047;-71
2021/01/27 13:32:56;;;;;;;;;;;20.80;24.70;;;;;;5067992;28;20348;-71
2021/01/27 13:35:24;;;;;;;;;;;20.20;25.90;;;;;;5072001;28;19974;-71
2021/01/27 13:37:50;;;;;;;;;;;19.40;26.80;;;;;;5068789;28;19971;-71
2021/01/27 13:40:17;;;;;;;;;;;19.00;27.20;;;;;;5072819;28;19978;-71
2021/01/27 13:42:51;;;;;;;;;;;18.20;26.90;;;;;;5071560;28;20458;-71
2021/01/27 13:45:17;;;;;;;;;;;17.50;28.40;;;;;;5068143;28;20395;-71
2021/01/27 13:47:48;;;;;;;;;;;16.80;29.30;;;;;;5071847;28;19924;-71
2021/01/27 13:50:15;;;;;;;;;;;16.70;29.80;;;;;;5068925;28;19962;-71
2021/01/27 13:52:42;;;;;;;;;;;16.40;31.30;;;;;;5071850;28;19967;-71
2021/01/27 13:55:08;;;;;;;;;;;17.00;31.10;;;;;;5068716;28;19991;-71
2021/01/27 13:57:34;;;;;;;;;;;17.50;30.00;;;;;;5072381;28;19932;-71
2021/01/27 14:00:01;;;;;;;;;;;17.50;28.90;;;;;;5068285;28;20315;-71
2021/01/27 14:02:27;;;;;;;;;;;17.60;29.50;;;;;;5071016;28;19963;-71
2021/01/27 14:04:56;;;;;;;;;;;16.50;29.40;;;;;;5058583;28;19928;-71
2021/01/27 14:07:22;;;;;;;;;;;16.30;30.80;;;;;;5070453;28;20415;-71
2021/01/27 14:09:48;;;;;;;;;;;16.30;31.70;;;;;;5067737;28;20261;-71
2021/01/27 14:12:15;;;;;;;;;;;16.50;30.30;;;;;;5070672;28;19982;-71
2021/01/27 14:14:43;;;;;;;;;;;16.70;30.80;;;;;;5071458;28;19978;-71
2021/01/27 14:17:10;;;;;;;;;;;16.70;30.90;;;;;;5068640;28;19967;-71
2021/01/27 14:19:40;;;;;;;;;;;16.20;31.50;;;;;;5072037;28;19971;-71
2021/01/27 14:22:06;;;;;;;;;;;16.10;31.20;;;;;;5067942;28;20479;-71
2021/01/27 14:24:32;;;;;;;;;;;16.30;30.50;;;;;;5070887;28;19975;-71
2021/01/27 14:26:59;;;;;;;;;;;15.80;31.80;;;;;;5068596;28;19951;-71
2021/01/27 14:29:25;;;;;;;;;;;15.90;32.00;;;;;;5071111;28;19978;-71
2021/01/27 14:31:52;;;;;;;;;;;15.70;31.50;;;;;;5067536;28;19936;-71
2021/01/27 14:34:18;;;;;;;;;;;15.40;31.90;;;;;;5071953;28;19963;-71
2021/01/27 14:36:45;;;;;;;;;;;15.20;33.30;;;;;;5068947;28;20034;-71
2021/01/27 14:39:11;;;;;;;;;;;15.50;32.50;;;;;;5071791;28;19994;-71
2021/01/27 14:41:40;;;;;;;;;;;15.80;32.50;;;;;;5068421;28;21556;-71
2021/01/27 14:44:07;;;;;;;;;;;16.10;31.80;;;;;;5071985;28;19929;-71
2021/01/27 14:46:37;;;;;;;;;;;15.60;32.40;;;;;;5072320;28;20230;-71